Webcams

Webcam1&2         Webcam1 (Zeitraffer 2 Std.)        Webcam2 (Zeitraffer 2 Std.)

Webcam2 - Zeitraffer (die letzten zwei Stunden, Intervall: 10min)
cam2--20170429_070959M
cam2--20170429_071958M
cam2--20170429_072959M
cam2--20170429_073959M
cam2--20170429_074958M
cam2--20170429_075957M
cam2--20170429_080958M
cam2--20170429_081958M
cam2--20170429_082958M
cam2--20170429_083958M
cam2--20170429_084959M
cam2--20170429_085958M
cam2--20170429_090958M
01/13 
start stop bwd fwd

Webcam2 - Aktuell

Lokale Serverzeit 09:10 | 29.04.2017
Webcam-Lageplan

Flugwetter

[source: ADDS]
METAR
LOWL 290650Z 29007KT 9000 FEW012 BKN024 05/03 Q1019 NOSIG =
TAF
TAF LOWL 290515Z 2906/3006 28005KT 9999 SCT025 BKN080 TX11/2916Z TN01/3004Z TEMPO 2906/2910 28010KT 7000 -SHRA BKN020 BECMG 2916/2918 VRB02KT CAVOK TEMPO 3002/3006 0500 BCFG NSC =